LTAILTFC

Guest
Details From LTAI - Antalya
To LTFC - SULEYMAN DEMIREL
Flight Number -
Tags generated
Created
Modified
Stats Distance 61 nm / 113 km
Max Altitude 400 ft / 122 m
Waypoints 3
Social Downloads 1
Likes 0
Share VATSIM

Download

Looking for another format? Having issues loading an existing format? Contact us
Advertisement - Login to hide

Notes

Basic altitude profile: - Ascent Rate: 2500ft/min - Ascent Speed: 250kts - Cruise Altitude: 35000ft - Cruise Speed: 420kts - Descent Rate: 1500ft/min - Descent Speed: 250kts

Route

LTAI AYT LTFC

ID Type Via Altitude Latitude Longitude Leg Dist Tot Dist Heading (true) Name
O LTAI APT - 0 ft / 0 m 36.89960˚ 30.79751˚ - 0 nm - Antalya
AYT VOR - 400 ft / 122 m 36.92139˚ 30.79694˚ 1 nm 1 nm 359° / 359° ANTALYA VOR-DME
O LTFC APT - 0 ft / 0 m 37.85542˚ 30.36840˚ 59 nm 61 nm 340° / 340° SULEYMAN DEMIREL

Altitude Profile

Advertisement - Login to hide

LTAI

Details ICAO LTAI (AYT)
Name Antalya
Region Turkey
Timezone Europe/Istanbul (UTC+3.0)
Stats Elevation 177 ft / 54 m (AMSL)
Location 36.899598° 30.797507°
Runways 3
Magnetic Variation 5.072° E

METAR

LTAI 171120Z 16009KT 090V180 9999 FEW015CB BKN025 19/15 Q1018 NOSIG

Decode

TAF

TAF AMD LTAI 170640Z 1706/1806 18014KT 9999 -SHRA FEW015CB BKN025 PROB30 1709/1712 -TSRA TEMPO 1712/1716 16016G26KT PROB40 TEMPO 1716/1720 -TSRA PROB40 TEMPO 1802/1806 -TSRA

Decode

Departure Runways

ID Width Length Bearing (true) Bearing (mag) Surface Threshold Offset Overrun Length
18C 148 ft / 45 m 11,137 ft / 3,394 m 186.26° 181.19° Concrete 0 ft / 0 m 197 ft / 60 m
18L 148 ft / 45 m 11,180 ft / 3,408 m 186.28° 181.21° Concrete 0 ft / 0 m 197 ft / 60 m
18R 148 ft / 45 m 9,789 ft / 2,984 m 186.25° 181.18° Asphalt 0 ft / 0 m 984 ft / 300 m
36C 148 ft / 45 m 11,137 ft / 3,394 m 6.25° 1.18° Concrete 0 ft / 0 m 197 ft / 60 m
36L 148 ft / 45 m 9,789 ft / 2,984 m 6.25° 1.18° Asphalt 0 ft / 0 m 984 ft / 300 m
36R 148 ft / 45 m 11,180 ft / 3,408 m 6.28° 1.21° Concrete 0 ft / 0 m 197 ft / 60 m

LTFC

Details ICAO LTFC (ISE)
Name SULEYMAN DEMIREL
Region Turkey
Timezone Europe/Istanbul (UTC+3.0)
Stats Elevation 2,835 ft / 864 m (AMSL)
Location 37.855415° 30.368399°
Runways 1
Magnetic Variation 5.156° E

METAR

LTFC 171120Z 17024KT 9999 SCT035 14/06 Q1016

Decode

TAF

Not found

Destination Runways

ID Width Length Bearing (true) Bearing (mag) Surface Threshold Offset Overrun Length
05 148 ft / 45 m 9,856 ft / 3,004 m 49.51° 44.35° Concrete 0 ft / 0 m 190 ft / 58 m
23 148 ft / 45 m 9,856 ft / 3,004 m 229.52° 224.36° Concrete 0 ft / 0 m 190 ft / 58 m

Popular Alternatives